Skip Navigation LinksHome page > Weather > Current weather Skip Navigation Links

Current Weather

San Francisco International, San Francisco

For information only: do not use for flight planning or navigation.
Latest weather
Observation time Monday, May 22, 2017 7:56 AM PDT
Local time Monday, May 22, 2017 8:40 AM PDT
Flight conditions Visual Meteorological Conditions
Winds
Wind direction West-Northwest (300°)
Wind speed 8 mph
Visibility 10 mi.
Sky condition
Ceiling unlimited
Cloud layer few clouds 800 ft.
Cloud layer scattered clouds 6,000 ft.
Temperature 55°F
Dewpoint 50°F
Altimeter 29.98 in.Hg
Pressure change last 3 hours-0.02 in.Hg
Pressure rising more slowly
Derived measurements
Relative humidity 83%
Density altitude -142 ft.
Sea-level pressure 29.97 in.Hg
Remarks
Automated weather observing station with precipitation discriminator.
METAR KSFO 221456Z 30007KT 10SM FEW008 SCT060 13/10 A2998 RMK AO2 SLP150 T01280100 51008

Settings

Location code

InnerDrive.Weather 4.0.6144.1 Release CLR 4.0.30319.36366
Copyright ©2015 Inner Drive Technology. All rights reserved. Portions Copyright ©1986-2015 David Braverman.

Find weather

Site navigation


Skip Navigation Links

Place info

Page info

PayPal - The safer, easier way to pay online!

Return home.

Copyright ©2017 Inner Drive Technology. Purveyors of fine, hand-crafted computer software. Page printed 2017-05-22T15:40:23 UTC.